sensor_id;sensor_type;location;lat;lon;timestamp;pressure;altitude;pressure_sealevel;temperature;humidity
36598;BME280;22607;49.550;11.940;2023-06-26T00:02:14;96931.69;;;18.48;96.03
36598;BME280;22607;49.550;11.940;2023-06-26T00:04:43;96931.16;;;18.40;98.07
36598;BME280;22607;49.550;11.940;2023-06-26T00:07:10;96932.22;;;18.39;97.14
36598;BME280;22607;49.550;11.940;2023-06-26T00:09:36;96925.19;;;18.44;94.89
36598;BME280;22607;49.550;11.940;2023-06-26T00:12:03;96925.72;;;18.34;97.08
36598;BME280;22607;49.550;11.940;2023-06-26T00:14:30;96921.50;;;18.27;99.20
36598;BME280;22607;49.550;11.940;2023-06-26T00:16:56;96924.72;;;18.29;98.52
36598;BME280;22607;49.550;11.940;2023-06-26T00:19:23;96929.81;;;18.05;100.00
36598;BME280;22607;49.550;11.940;2023-06-26T00:21:49;96922.25;;;18.08;100.00
36598;BME280;22607;49.550;11.940;2023-06-26T00:24:17;96924.63;;;18.17;100.00
36598;BME280;22607;49.550;11.940;2023-06-26T00:26:46;96935.28;;;18.17;100.00
36598;BME280;22607;49.550;11.940;2023-06-26T00:29:13;96933.06;;;18.07;100.00
36598;BME280;22607;49.550;11.940;2023-06-26T00:31:40;96925.34;;;18.05;100.00
36598;BME280;22607;49.550;11.940;2023-06-26T00:34:08;96922.53;;;18.00;100.00
36598;BME280;22607;49.550;11.940;2023-06-26T00:36:34;96924.13;;;18.08;100.00
36598;BME280;22607;49.550;11.940;2023-06-26T00:39:01;96925.19;;;18.00;100.00
36598;BME280;22607;49.550;11.940;2023-06-26T00:41:29;96927.72;;;18.14;100.00
36598;BME280;22607;49.550;11.940;2023-06-26T00:43:56;96929.81;;;18.12;100.00
36598;BME280;22607;49.550;11.940;2023-06-26T00:46:22;96920.44;;;18.02;100.00
36598;BME280;22607;49.550;11.940;2023-06-26T00:48:50;96924.09;;;17.82;100.00
36598;BME280;22607;49.550;11.940;2023-06-26T00:51:18;96925.19;;;17.75;100.00
36598;BME280;22607;49.550;11.940;2023-06-26T00:53:46;96930.88;;;17.78;100.00
36598;BME280;22607;49.550;11.940;2023-06-26T00:56:14;96917.06;;;17.88;100.00
36598;BME280;22607;49.550;11.940;2023-06-26T00:58:41;96920.50;;;17.95;100.00
36598;BME280;22607;49.550;11.940;2023-06-26T01:01:08;96925.75;;;18.02;100.00
36598;BME280;22607;49.550;11.940;2023-06-26T01:03:35;96920.06;;;17.73;100.00
36598;BME280;22607;49.550;11.940;2023-06-26T01:06:03;96908.53;;;17.86;100.00
36598;BME280;22607;49.550;11.940;2023-06-26T01:08:30;96913.94;;;17.73;100.00
36598;BME280;22607;49.550;11.940;2023-06-26T01:10:58;96918.38;;;17.79;100.00
36598;BME280;22607;49.550;11.940;2023-06-26T01:13:25;96916.66;;;17.66;100.00
36598;BME280;22607;49.550;11.940;2023-06-26T01:15:53;96916.31;;;17.55;100.00
36598;BME280;22607;49.550;11.940;2023-06-26T01:18:20;96924.03;;;17.64;100.00
36598;BME280;22607;49.550;11.940;2023-06-26T01:20:46;96913.25;;;17.58;100.00
36598;BME280;22607;49.550;11.940;2023-06-26T01:28:34;96923.59;;;17.35;100.00
36598;BME280;22607;49.550;11.940;2023-06-26T01:31:02;96922.56;;;17.36;100.00
36598;BME280;22607;49.550;11.940;2023-06-26T01:33:29;96921.66;;;17.49;100.00
36598;BME280;22607;49.550;11.940;2023-06-26T01:35:56;96913.16;;;17.40;100.00
36598;BME280;22607;49.550;11.940;2023-06-26T01:38:23;96906.00;;;17.40;100.00
36598;BME280;22607;49.550;11.940;2023-06-26T01:40:50;96914.78;;;17.41;100.00
36598;BME280;22607;49.550;11.940;2023-06-26T01:45:48;96899.56;;;17.23;100.00
36598;BME280;22607;49.550;11.940;2023-06-26T01:48:16;96912.25;;;17.21;100.00
36598;BME280;22607;49.550;11.940;2023-06-26T01:50:47;96914.50;;;17.17;100.00
36598;BME280;22607;49.550;11.940;2023-06-26T01:53:18;96907.56;;;17.16;100.00
36598;BME280;22607;49.550;11.940;2023-06-26T01:55:48;96907.38;;;17.11;100.00
36598;BME280;22607;49.550;11.940;2023-06-26T01:58:17;96900.63;;;17.15;100.00
36598;BME280;22607;49.550;11.940;2023-06-26T02:00:48;96901.91;;;17.05;100.00
36598;BME280;22607;49.550;11.940;2023-06-26T02:03:15;96893.78;;;16.93;100.00
36598;BME280;22607;49.550;11.940;2023-06-26T02:05:41;96898.63;;;17.10;100.00
36598;BME280;22607;49.550;11.940;2023-06-26T02:08:09;96902.44;;;17.21;100.00
36598;BME280;22607;49.550;11.940;2023-06-26T02:10:35;96901.53;;;16.95;100.00
36598;BME280;22607;49.550;11.940;2023-06-26T02:13:02;96910.06;;;16.97;100.00
36598;BME280;22607;49.550;11.940;2023-06-26T02:15:29;96909.31;;;16.90;100.00
36598;BME280;22607;49.550;11.940;2023-06-26T02:17:55;96904.19;;;16.88;100.00
36598;BME280;22607;49.550;11.940;2023-06-26T02:20:22;96914.44;;;16.85;100.00
36598;BME280;22607;49.550;11.940;2023-06-26T02:22:49;96911.16;;;16.83;100.00
36598;BME280;22607;49.550;11.940;2023-06-26T02:25:17;96906.91;;;16.75;100.00
36598;BME280;22607;49.550;11.940;2023-06-26T02:27:43;96908.53;;;16.76;100.00
36598;BME280;22607;49.550;11.940;2023-06-26T02:30:10;96896.75;;;16.65;100.00
36598;BME280;22607;49.550;11.940;2023-06-26T02:32:37;96906.97;;;16.54;100.00
36598;BME280;22607;49.550;11.940;2023-06-26T02:35:03;96907.22;;;16.53;100.00
36598;BME280;22607;49.550;11.940;2023-06-26T02:37:30;96917.53;;;16.68;100.00
36598;BME280;22607;49.550;11.940;2023-06-26T02:39:57;96912.47;;;16.60;100.00
36598;BME280;22607;49.550;11.940;2023-06-26T02:42:23;96905.34;;;16.53;100.00
36598;BME280;22607;49.550;11.940;2023-06-26T02:44:50;96908.63;;;16.56;100.00
36598;BME280;22607;49.550;11.940;2023-06-26T02:47:16;96901.91;;;16.53;100.00
36598;BME280;22607;49.550;11.940;2023-06-26T02:49:43;96906.19;;;16.47;100.00
36598;BME280;22607;49.550;11.940;2023-06-26T02:52:17;96914.97;;;16.41;100.00
36598;BME280;22607;49.550;11.940;2023-06-26T02:54:45;96915.59;;;16.36;100.00
36598;BME280;22607;49.550;11.940;2023-06-26T02:57:12;96911.53;;;16.27;100.00
36598;BME280;22607;49.550;11.940;2023-06-26T02:59:41;96919.91;;;16.04;100.00
36598;BME280;22607;49.550;11.940;2023-06-26T03:02:07;96925.38;;;16.22;100.00
36598;BME280;22607;49.550;11.940;2023-06-26T03:04:36;96927.25;;;16.15;100.00
36598;BME280;22607;49.550;11.940;2023-06-26T03:07:04;96926.84;;;16.25;100.00
36598;BME280;22607;49.550;11.940;2023-06-26T03:09:30;96916.44;;;16.17;100.00
36598;BME280;22607;49.550;11.940;2023-06-26T03:11:57;96918.06;;;16.24;100.00
36598;BME280;22607;49.550;11.940;2023-06-26T03:14:24;96914.00;;;16.15;100.00
36598;BME280;22607;49.550;11.940;2023-06-26T03:16:50;96916.47;;;16.03;100.00
36598;BME280;22607;49.550;11.940;2023-06-26T03:19:19;96901.59;;;16.02;100.00
36598;BME280;22607;49.550;11.940;2023-06-26T03:21:45;96917.25;;;16.10;100.00
36598;BME280;22607;49.550;11.940;2023-06-26T03:24:12;96907.50;;;15.97;100.00
36598;BME280;22607;49.550;11.940;2023-06-26T03:26:39;96903.81;;;16.05;100.00
36598;BME280;22607;49.550;11.940;2023-06-26T03:29:05;96898.50;;;16.12;100.00
36598;BME280;22607;49.550;11.940;2023-06-26T03:31:32;96903.63;;;16.00;100.00
36598;BME280;22607;49.550;11.940;2023-06-26T03:33:58;96897.91;;;16.10;100.00
36598;BME280;22607;49.550;11.940;2023-06-26T03:36:25;96904.19;;;16.22;100.00
36598;BME280;22607;49.550;11.940;2023-06-26T03:38:51;96909.06;;;16.32;100.00
36598;BME280;22607;49.550;11.940;2023-06-26T03:41:23;96911.16;;;16.10;100.00
36598;BME280;22607;49.550;11.940;2023-06-26T03:43:50;96908.06;;;16.13;100.00
36598;BME280;22607;49.550;11.940;2023-06-26T03:46:17;96906.44;;;16.25;100.00
36598;BME280;22607;49.550;11.940;2023-06-26T03:48:44;96915.03;;;16.14;100.00
36598;BME280;22607;49.550;11.940;2023-06-26T03:51:10;96914.00;;;16.15;100.00
36598;BME280;22607;49.550;11.940;2023-06-26T03:53:43;96911.34;;;16.15;100.00
36598;BME280;22607;49.550;11.940;2023-06-26T03:56:09;96912.38;;;16.14;100.00
36598;BME280;22607;49.550;11.940;2023-06-26T03:58:37;96907.09;;;16.14;100.00
36598;BME280;22607;49.550;11.940;2023-06-26T04:01:04;96909.13;;;15.98;100.00
36598;BME280;22607;49.550;11.940;2023-06-26T04:03:30;96903.81;;;16.19;100.00
36598;BME280;22607;49.550;11.940;2023-06-26T04:05:57;96907.06;;;16.27;100.00
36598;BME280;22607;49.550;11.940;2023-06-26T04:08:39;96910.94;;;16.18;100.00
36598;BME280;22607;49.550;11.940;2023-06-26T04:11:08;96908.06;;;16.13;100.00
36598;BME280;22607;49.550;11.940;2023-06-26T04:13:35;96908.66;;;16.35;100.00
36598;BME280;22607;49.550;11.940;2023-06-26T04:16:10;96897.47;;;16.26;100.00
36598;BME280;22607;49.550;11.940;2023-06-26T04:18:38;96909.06;;;16.32;100.00
36598;BME280;22607;49.550;11.940;2023-06-26T04:21:14;96909.25;;;16.44;100.00
36598;BME280;22607;49.550;11.940;2023-06-26T04:23:58;96890.75;;;16.24;100.00
36598;BME280;22607;49.550;11.940;2023-06-26T04:26:35;96889.91;;;16.44;100.00
36598;BME280;22607;49.550;11.940;2023-06-26T04:29:02;96907.59;;;16.57;100.00
36598;BME280;22607;49.550;11.940;2023-06-26T04:31:29;96907.75;;;16.69;100.00
36598;BME280;22607;49.550;11.940;2023-06-26T04:33:58;96897.75;;;16.71;100.00
36598;BME280;22607;49.550;11.940;2023-06-26T04:36:26;96890.47;;;17.12;100.00
36598;BME280;22607;49.550;11.940;2023-06-26T04:38:55;96887.78;;;17.95;100.00
36598;BME280;22607;49.550;11.940;2023-06-26T04:41:22;96884.06;;;18.66;100.00
36598;BME280;22607;49.550;11.940;2023-06-26T04:43:48;96892.22;;;19.32;99.80
36598;BME280;22607;49.550;11.940;2023-06-26T04:46:15;96897.84;;;19.54;99.17
36598;BME280;22607;49.550;11.940;2023-06-26T04:48:41;96895.09;;;19.73;97.73
36598;BME280;22607;49.550;11.940;2023-06-26T04:51:08;96890.38;;;20.35;91.97
36598;BME280;22607;49.550;11.940;2023-06-26T04:53:35;96885.03;;;20.88;84.00
36598;BME280;22607;49.550;11.940;2023-06-26T04:56:03;96897.38;;;21.18;81.59
36598;BME280;22607;49.550;11.940;2023-06-26T04:58:30;96884.44;;;21.44;81.21
36598;BME280;22607;49.550;11.940;2023-06-26T05:00:57;96888.34;;;21.54;80.74
36598;BME280;22607;49.550;11.940;2023-06-26T05:03:25;96893.22;;;22.08;74.93
36598;BME280;22607;49.550;11.940;2023-06-26T05:05:52;96884.91;;;22.27;71.92
36598;BME280;22607;49.550;11.940;2023-06-26T05:08:24;96896.25;;;22.34;70.76
36598;BME280;22607;49.550;11.940;2023-06-26T05:10:53;96874.28;;;22.72;69.31
36598;BME280;22607;49.550;11.940;2023-06-26T05:13:37;96884.50;;;23.02;65.92
36598;BME280;22607;49.550;11.940;2023-06-26T05:16:03;96871.06;;;23.25;64.97
36598;BME280;22607;49.550;11.940;2023-06-26T05:18:30;96862.22;;;23.24;64.00
36598;BME280;22607;49.550;11.940;2023-06-26T05:20:58;96873.00;;;23.29;64.07
36598;BME280;22607;49.550;11.940;2023-06-26T05:23:25;96870.56;;;23.55;63.59
36598;BME280;22607;49.550;11.940;2023-06-26T05:25:52;96877.25;;;23.91;61.10
36598;BME280;22607;49.550;11.940;2023-06-26T05:28:19;96864.44;;;23.98;60.49
36598;BME280;22607;49.550;11.940;2023-06-26T05:30:46;96860.59;;;24.27;59.88
36598;BME280;22607;49.550;11.940;2023-06-26T05:33:14;96869.63;;;24.63;59.59
36598;BME280;22607;49.550;11.940;2023-06-26T05:35:41;96856.75;;;24.71;59.42
36598;BME280;22607;49.550;11.940;2023-06-26T05:38:09;96863.72;;;24.61;59.33
36598;BME280;22607;49.550;11.940;2023-06-26T05:40:36;96865.19;;;24.95;57.74
36598;BME280;22607;49.550;11.940;2023-06-26T05:43:03;96866.88;;;25.22;56.49
36598;BME280;22607;49.550;11.940;2023-06-26T05:45:30;96862.31;;;25.49;55.45
36598;BME280;22607;49.550;11.940;2023-06-26T05:47:56;96865.28;;;25.84;53.28
36598;BME280;22607;49.550;11.940;2023-06-26T05:50:23;96863.91;;;25.50;54.18
36598;BME280;22607;49.550;11.940;2023-06-26T05:52:51;96840.28;;;25.78;52.58
36598;BME280;22607;49.550;11.940;2023-06-26T05:55:18;96844.03;;;25.87;53.42
36598;BME280;22607;49.550;11.940;2023-06-26T05:57:46;96855.75;;;26.43;52.34
36598;BME280;22607;49.550;11.940;2023-06-26T06:00:13;96861.38;;;26.47;52.04
36598;BME280;22607;49.550;11.940;2023-06-26T06:02:41;96871.53;;;26.71;51.18
36598;BME280;22607;49.550;11.940;2023-06-26T06:05:09;96846.94;;;26.88;51.59
36598;BME280;22607;49.550;11.940;2023-06-26T06:07:36;96851.03;;;27.25;51.17
36598;BME280;22607;49.550;11.940;2023-06-26T06:10:03;96858.72;;;27.43;50.50
36598;BME280;22607;49.550;11.940;2023-06-26T06:12:30;96849.00;;;27.47;49.30
36598;BME280;22607;49.550;11.940;2023-06-26T06:14:56;96843.22;;;27.64;48.04
36598;BME280;22607;49.550;11.940;2023-06-26T06:17:23;96840.66;;;27.03;48.99
36598;BME280;22607;49.550;11.940;2023-06-26T06:19:50;96841.63;;;27.63;48.81
36598;BME280;22607;49.550;11.940;2023-06-26T06:22:16;96848.28;;;27.71;46.97
36598;BME280;22607;49.550;11.940;2023-06-26T06:24:43;96842.44;;;27.88;46.05
36598;BME280;22607;49.550;11.940;2023-06-26T06:27:10;96851.81;;;27.66;46.57
36598;BME280;22607;49.550;11.940;2023-06-26T06:29:37;96831.72;;;27.83;46.98
36598;BME280;22607;49.550;11.940;2023-06-26T06:32:03;96839.91;;;28.02;46.11
36598;BME280;22607;49.550;11.940;2023-06-26T06:34:30;96843.88;;;28.10;45.51
36598;BME280;22607;49.550;11.940;2023-06-26T06:36:56;96830.38;;;28.10;45.38
36598;BME280;22607;49.550;11.940;2023-06-26T06:39:23;96841.00;;;28.25;45.83
36598;BME280;22607;49.550;11.940;2023-06-26T06:41:50;96842.94;;;28.88;44.28
36598;BME280;22607;49.550;11.940;2023-06-26T06:44:16;96840.22;;;28.68;44.64
36598;BME280;22607;49.550;11.940;2023-06-26T06:46:43;96847.09;;;29.38;42.33
36598;BME280;22607;49.550;11.940;2023-06-26T06:49:09;96833.00;;;29.41;41.53
36598;BME280;22607;49.550;11.940;2023-06-26T06:51:36;96838.19;;;29.56;41.11
36598;BME280;22607;49.550;11.940;2023-06-26T06:54:03;96840.00;;;29.42;42.69
36598;BME280;22607;49.550;11.940;2023-06-26T06:56:29;96843.38;;;29.53;42.02
36598;BME280;22607;49.550;11.940;2023-06-26T06:58:56;96834.22;;;29.68;41.18
36598;BME280;22607;49.550;11.940;2023-06-26T07:01:22;96827.16;;;29.67;40.54
36598;BME280;22607;49.550;11.940;2023-06-26T07:03:49;96832.81;;;29.70;42.06
36598;BME280;22607;49.550;11.940;2023-06-26T07:06:16;96824.13;;;29.87;39.87
36598;BME280;22607;49.550;11.940;2023-06-26T07:08:42;96825.88;;;29.64;41.45
36598;BME280;22607;49.550;11.940;2023-06-26T07:11:09;96825.34;;;29.29;42.65
36598;BME280;22607;49.550;11.940;2023-06-26T07:13:35;96825.66;;;29.60;42.68
36598;BME280;22607;49.550;11.940;2023-06-26T07:16:03;96831.44;;;30.01;42.16
36598;BME280;22607;49.550;11.940;2023-06-26T07:18:29;96825.97;;;30.34;39.13
36598;BME280;22607;49.550;11.940;2023-06-26T07:20:56;96823.66;;;30.28;38.88
36598;BME280;22607;49.550;11.940;2023-06-26T07:23:22;96817.41;;;29.99;39.60
36598;BME280;22607;49.550;11.940;2023-06-26T07:25:49;96814.50;;;30.09;40.00
36598;BME280;22607;49.550;11.940;2023-06-26T07:28:15;96822.66;;;30.23;39.24
36598;BME280;22607;49.550;11.940;2023-06-26T07:30:42;96821.84;;;30.37;39.27
36598;BME280;22607;49.550;11.940;2023-06-26T07:33:09;96805.09;;;31.00;38.37
36598;BME280;22607;49.550;11.940;2023-06-26T07:35:36;96815.13;;;31.22;37.38
36598;BME280;22607;49.550;11.940;2023-06-26T07:38:02;96806.56;;;31.06;37.83
36598;BME280;22607;49.550;11.940;2023-06-26T07:40:29;96805.75;;;31.51;37.06
36598;BME280;22607;49.550;11.940;2023-06-26T07:42:56;96815.25;;;31.31;38.47
36598;BME280;22607;49.550;11.940;2023-06-26T07:45:24;96807.81;;;31.23;36.51
36598;BME280;22607;49.550;11.940;2023-06-26T07:47:52;96800.53;;;31.09;36.47
36598;BME280;22607;49.550;11.940;2023-06-26T07:50:19;96807.72;;;31.14;37.20
36598;BME280;22607;49.550;11.940;2023-06-26T07:52:49;96806.63;;;31.61;36.16
36598;BME280;22607;49.550;11.940;2023-06-26T07:55:16;96796.94;;;31.68;35.52
36598;BME280;22607;49.550;11.940;2023-06-26T07:57:42;96803.69;;;31.48;36.39
36598;BME280;22607;49.550;11.940;2023-06-26T08:00:09;96799.00;;;31.94;36.36
36598;BME280;22607;49.550;11.940;2023-06-26T08:02:36;96807.06;;;32.26;35.80
36598;BME280;22607;49.550;11.940;2023-06-26T08:05:03;96799.06;;;32.12;36.71
36598;BME280;22607;49.550;11.940;2023-06-26T08:07:30;96795.97;;;32.05;35.10
36598;BME280;22607;49.550;11.940;2023-06-26T08:09:56;96795.03;;;32.50;34.79
36598;BME280;22607;49.550;11.940;2023-06-26T08:12:23;96794.44;;;32.13;34.57
36598;BME280;22607;49.550;11.940;2023-06-26T08:14:50;96786.06;;;32.50;33.91
36598;BME280;22607;49.550;11.940;2023-06-26T08:17:16;96792.41;;;32.36;33.03
36598;BME280;22607;49.550;11.940;2023-06-26T08:19:43;96784.03;;;32.06;34.18
36598;BME280;22607;49.550;11.940;2023-06-26T08:22:09;96783.72;;;32.16;34.74
36598;BME280;22607;49.550;11.940;2023-06-26T08:24:36;96782.53;;;32.49;34.70
36598;BME280;22607;49.550;11.940;2023-06-26T08:27:03;96788.00;;;32.93;32.91
36598;BME280;22607;49.550;11.940;2023-06-26T08:29:30;96780.16;;;32.65;34.56
36598;BME280;22607;49.550;11.940;2023-06-26T08:31:56;96784.81;;;32.82;34.05
36598;BME280;22607;49.550;11.940;2023-06-26T08:34:23;96777.44;;;32.92;32.71
36598;BME280;22607;49.550;11.940;2023-06-26T08:36:49;96779.06;;;32.93;33.38
36598;BME280;22607;49.550;11.940;2023-06-26T08:39:16;96774.25;;;32.63;31.99
36598;BME280;22607;49.550;11.940;2023-06-26T08:41:46;96778.47;;;32.20;33.82
36598;BME280;22607;49.550;11.940;2023-06-26T08:44:12;96779.03;;;32.48;33.10
36598;BME280;22607;49.550;11.940;2023-06-26T08:46:39;96777.91;;;32.50;34.26
36598;BME280;22607;49.550;11.940;2023-06-26T08:49:21;96770.56;;;32.94;32.19
36598;BME280;22607;49.550;11.940;2023-06-26T08:52:17;96772.03;;;33.18;30.81
36598;BME280;22607;49.550;11.940;2023-06-26T08:54:46;96761.47;;;33.08;31.43
36598;BME280;22607;49.550;11.940;2023-06-26T08:57:18;96760.66;;;33.16;31.93
36598;BME280;22607;49.550;11.940;2023-06-26T08:59:46;96756.78;;;33.35;32.14
36598;BME280;22607;49.550;11.940;2023-06-26T09:02:14;96757.06;;;33.51;33.19
36598;BME280;22607;49.550;11.940;2023-06-26T09:04:41;96756.91;;;33.47;31.41
36598;BME280;22607;49.550;11.940;2023-06-26T09:07:08;96756.34;;;33.15;30.86
36598;BME280;22607;49.550;11.940;2023-06-26T09:09:35;96750.59;;;33.73;32.97
36598;BME280;22607;49.550;11.940;2023-06-26T09:12:02;96742.66;;;33.59;28.89
36598;BME280;22607;49.550;11.940;2023-06-26T09:14:30;96741.03;;;33.67;29.01
36598;BME280;22607;49.550;11.940;2023-06-26T09:16:57;96744.28;;;33.90;28.76
36598;BME280;22607;49.550;11.940;2023-06-26T09:19:24;96743.72;;;33.02;28.55
36598;BME280;22607;49.550;11.940;2023-06-26T09:21:52;96744.44;;;33.85;29.60
36598;BME280;22607;49.550;11.940;2023-06-26T09:24:19;96737.72;;;33.91;29.41
36598;BME280;22607;49.550;11.940;2023-06-26T09:26:48;96745.13;;;33.82;29.23
36598;BME280;22607;49.550;11.940;2023-06-26T09:29:17;96725.34;;;33.64;29.59
36598;BME280;22607;49.550;11.940;2023-06-26T09:31:43;96729.44;;;33.79;29.31
36598;BME280;22607;49.550;11.940;2023-06-26T09:34:10;96731.81;;;34.20;28.96
36598;BME280;22607;49.550;11.940;2023-06-26T09:36:37;96726.59;;;34.36;28.03
36598;BME280;22607;49.550;11.940;2023-06-26T09:39:07;96738.84;;;33.90;28.82
36598;BME280;22607;49.550;11.940;2023-06-26T09:41:41;96733.16;;;33.74;27.53
36598;BME280;22607;49.550;11.940;2023-06-26T09:44:11;96734.03;;;33.87;29.28
36598;BME280;22607;49.550;11.940;2023-06-26T09:46:38;96739.66;;;34.21;28.56
36598;BME280;22607;49.550;11.940;2023-06-26T09:49:07;96709.75;;;34.55;26.53
36598;BME280;22607;49.550;11.940;2023-06-26T09:51:35;96729.84;;;34.50;27.37
36598;BME280;22607;49.550;11.940;2023-06-26T09:54:03;96731.03;;;34.40;27.26
36598;BME280;22607;49.550;11.940;2023-06-26T09:56:31;96720.94;;;33.81;27.48
36598;BME280;22607;49.550;11.940;2023-06-26T09:58:59;96716.22;;;34.50;26.05
36598;BME280;22607;49.550;11.940;2023-06-26T10:01:27;96727.97;;;34.42;27.73
36598;BME280;22607;49.550;11.940;2023-06-26T10:03:54;96727.31;;;34.45;28.03
36598;BME280;22607;49.550;11.940;2023-06-26T10:08:59;96707.84;;;34.77;24.75
36598;BME280;22607;49.550;11.940;2023-06-26T10:11:34;96715.94;;;34.43;25.84
36598;BME280;22607;49.550;11.940;2023-06-26T10:14:04;96709.50;;;34.48;25.07
36598;BME280;22607;49.550;11.940;2023-06-26T10:16:44;96699.97;;;34.63;25.30
36598;BME280;22607;49.550;11.940;2023-06-26T10:19:12;96708.84;;;34.72;26.62
36598;BME280;22607;49.550;11.940;2023-06-26T10:21:40;96695.13;;;34.81;25.68
36598;BME280;22607;49.550;11.940;2023-06-26T10:24:07;96699.56;;;34.86;24.40
36598;BME280;22607;49.550;11.940;2023-06-26T10:26:40;96684.34;;;34.85;25.95
36598;BME280;22607;49.550;11.940;2023-06-26T10:29:08;96684.72;;;34.95;25.90
36598;BME280;22607;49.550;11.940;2023-06-26T10:31:36;96686.91;;;35.02;25.29
36598;BME280;22607;49.550;11.940;2023-06-26T10:34:04;96672.59;;;35.05;25.07
36598;BME280;22607;49.550;11.940;2023-06-26T10:36:32;96681.44;;;35.02;24.94
36598;BME280;22607;49.550;11.940;2023-06-26T10:39:05;96684.44;;;35.09;24.78
36598;BME280;22607;49.550;11.940;2023-06-26T10:41:37;96679.00;;;35.22;26.14
36598;BME280;22607;49.550;11.940;2023-06-26T10:44:26;96681.00;;;35.00;27.24
36598;BME280;22607;49.550;11.940;2023-06-26T10:46:55;96678.34;;;34.91;25.92
36598;BME280;22607;49.550;11.940;2023-06-26T10:49:28;96689.41;;;34.10;26.59
36598;BME280;22607;49.550;11.940;2023-06-26T10:51:55;96677.84;;;34.13;26.38
36598;BME280;22607;49.550;11.940;2023-06-26T10:54:28;96675.88;;;34.43;26.30
36598;BME280;22607;49.550;11.940;2023-06-26T10:56:57;96672.47;;;34.47;25.24
36598;BME280;22607;49.550;11.940;2023-06-26T10:59:28;96667.53;;;34.82;25.31
36598;BME280;22607;49.550;11.940;2023-06-26T11:01:57;96673.31;;;34.81;26.89
36598;BME280;22607;49.550;11.940;2023-06-26T11:04:46;96664.06;;;35.07;26.12
36598;BME280;22607;49.550;11.940;2023-06-26T11:07:23;96668.19;;;35.13;27.13
36598;BME280;22607;49.550;11.940;2023-06-26T11:10:01;96661.78;;;35.09;25.43
36598;BME280;22607;49.550;11.940;2023-06-26T11:15:00;96661.34;;;35.07;26.62
36598;BME280;22607;49.550;11.940;2023-06-26T11:17:27;96655.16;;;35.44;26.11
36598;BME280;22607;49.550;11.940;2023-06-26T11:19:55;96659.84;;;34.97;24.76
36598;BME280;22607;49.550;11.940;2023-06-26T11:22:24;96643.09;;;35.32;25.88
36598;BME280;22607;49.550;11.940;2023-06-26T11:24:53;96654.72;;;34.40;26.02
36598;BME280;22607;49.550;11.940;2023-06-26T11:27:20;96654.44;;;35.22;25.88
36598;BME280;22607;49.550;11.940;2023-06-26T11:29:49;96645.72;;;34.95;26.84
36598;BME280;22607;49.550;11.940;2023-06-26T11:32:16;96649.22;;;34.83;26.07
36598;BME280;22607;49.550;11.940;2023-06-26T11:34:42;96636.72;;;35.16;26.48
36598;BME280;22607;49.550;11.940;2023-06-26T11:37:10;96638.22;;;35.26;24.92
36598;BME280;22607;49.550;11.940;2023-06-26T11:39:38;96642.00;;;35.00;25.26
36598;BME280;22607;49.550;11.940;2023-06-26T11:42:05;96643.91;;;34.01;27.52
36598;BME280;22607;49.550;11.940;2023-06-26T11:44:32;96647.13;;;34.46;27.57
36598;BME280;22607;49.550;11.940;2023-06-26T11:46:58;96639.91;;;34.50;26.47
36598;BME280;22607;49.550;11.940;2023-06-26T11:49:25;96637.50;;;34.70;25.39
36598;BME280;22607;49.550;11.940;2023-06-26T11:51:53;96639.94;;;34.41;25.46
36598;BME280;22607;49.550;11.940;2023-06-26T11:54:26;96649.81;;;34.12;26.54
36598;BME280;22607;49.550;11.940;2023-06-26T11:56:58;96639.59;;;34.09;26.17
36598;BME280;22607;49.550;11.940;2023-06-26T11:59:36;96633.31;;;34.30;27.43
36598;BME280;22607;49.550;11.940;2023-06-26T12:02:10;96625.63;;;34.11;27.16
36598;BME280;22607;49.550;11.940;2023-06-26T12:04:41;96634.91;;;34.52;28.27
36598;BME280;22607;49.550;11.940;2023-06-26T12:07:10;96631.78;;;34.20;26.87
36598;BME280;22607;49.550;11.940;2023-06-26T12:09:42;96623.78;;;33.72;27.79
36598;BME280;22607;49.550;11.940;2023-06-26T12:12:14;96619.66;;;33.66;26.86
36598;BME280;22607;49.550;11.940;2023-06-26T12:14:41;96625.28;;;33.61;28.35
36598;BME280;22607;49.550;11.940;2023-06-26T12:17:12;96620.63;;;33.91;27.17
36598;BME280;22607;49.550;11.940;2023-06-26T12:19:45;96622.81;;;33.98;27.35
36598;BME280;22607;49.550;11.940;2023-06-26T12:22:14;96608.72;;;33.96;26.39
36598;BME280;22607;49.550;11.940;2023-06-26T12:24:42;96618.66;;;34.22;26.70
36598;BME280;22607;49.550;11.940;2023-06-26T12:27:11;96620.84;;;34.08;26.67
36598;BME280;22607;49.550;11.940;2023-06-26T12:29:40;96626.72;;;33.19;27.16
36598;BME280;22607;49.550;11.940;2023-06-26T12:32:10;96621.28;;;33.19;27.30
36598;BME280;22607;49.550;11.940;2023-06-26T12:34:38;96625.41;;;33.25;28.87
36598;BME280;22607;49.550;11.940;2023-06-26T12:37:07;96617.75;;;33.88;27.50
36598;BME280;22607;49.550;11.940;2023-06-26T12:39:50;96606.34;;;34.37;27.70
36598;BME280;22607;49.550;11.940;2023-06-26T12:42:19;96612.03;;;34.44;27.70
36598;BME280;22607;49.550;11.940;2023-06-26T12:44:46;96615.78;;;34.40;26.58
36598;BME280;22607;49.550;11.940;2023-06-26T12:47:14;96606.72;;;34.48;26.98
36598;BME280;22607;49.550;11.940;2023-06-26T12:49:43;96592.94;;;34.66;26.40
36598;BME280;22607;49.550;11.940;2023-06-26T12:52:14;96609.78;;;34.68;27.35
36598;BME280;22607;49.550;11.940;2023-06-26T12:54:42;96615.63;;;34.36;27.70
36598;BME280;22607;49.550;11.940;2023-06-26T12:57:10;96613.44;;;33.87;26.68
36598;BME280;22607;49.550;11.940;2023-06-26T12:59:37;96606.94;;;34.00;26.31
36598;BME280;22607;49.550;11.940;2023-06-26T13:02:04;96612.34;;;33.79;27.09
36598;BME280;22607;49.550;11.940;2023-06-26T13:04:32;96607.75;;;33.71;28.28
36598;BME280;22607;49.550;11.940;2023-06-26T13:06:59;96605.44;;;34.12;26.21